Time;durP1;ratioP1;P1;durP2;ratioP2;P2;SDS_P1;SDS_P2;PMS_P1;PMS_P2;Temp;Humidity;BMP_temperature;BMP_pressure;BME280_temperature;BME280_humidity;BME280_pressure;Samples;Min_cycle;Max_cycle;Signal;HPM_P1;HPM_P2
2021/08/20 00:01:52;;;;;;;4.90;3.90;;;;;;;17.21;69.95;100014.44;4988823;28;106052;-68
2021/08/20 00:04:17;;;;;;;94.97;61.45;;;;;;;17.22;69.98;100024.19;4989120;28;106801;-67
2021/08/20 00:06:42;;;;;;;6.97;4.30;;;;;;;17.25;70.08;100015.66;4988657;28;106554;-67
2021/08/20 00:09:09;;;;;;;5.93;4.40;;;;;;;17.25;69.98;100018.34;4988819;28;105965;-67
2021/08/20 00:11:36;;;;;;;5.22;3.78;;;;;;;17.25;70.00;100010.28;4988088;28;106194;-67
2021/08/20 00:14:01;;;;;;;6.22;3.50;;;;;;;17.24;70.00;100016.69;4988704;28;106077;-67
2021/08/20 00:16:26;;;;;;;7.25;4.18;;;;;;;17.24;69.98;100015.88;4989007;28;106144;-69
2021/08/20 00:18:52;;;;;;;6.93;4.20;;;;;;;17.23;70.13;100012.34;4989124;28;106021;-68
2021/08/20 00:21:17;;;;;;;4.78;3.90;;;;;;;17.25;70.06;100012.97;4989258;28;105905;-69
2021/08/20 00:23:42;;;;;;;6.97;4.28;;;;;;;17.25;69.94;100014.84;4988755;28;106018;-68
2021/08/20 00:26:08;;;;;;;6.65;4.57;;;;;;;17.24;70.40;100015.88;4989880;28;105834;-67
2021/08/20 00:28:33;;;;;;;6.20;4.10;;;;;;;17.24;70.21;100019.38;4988797;28;106233;-67
2021/08/20 00:30:59;;;;;;;6.10;4.43;;;;;;;17.23;70.25;100011.53;4989291;28;106810;-67
2021/08/20 00:33:25;;;;;;;9.40;5.65;;;;;;;17.23;70.29;100012.34;4989070;28;106102;-67
2021/08/20 00:35:50;;;;;;;6.32;4.35;;;;;;;17.23;70.40;100012.34;4989754;28;105981;-67
2021/08/20 00:38:15;;;;;;;5.82;4.43;;;;;;;17.22;70.33;100008.03;4989289;28;106274;-67
2021/08/20 00:40:42;;;;;;;5.75;4.05;;;;;;;17.20;70.44;100010.09;4988778;28;105999;-67
2021/08/20 00:43:07;;;;;;;6.15;4.25;;;;;;;17.18;70.34;100004.13;4988680;28;106739;-67
2021/08/20 00:45:34;;;;;;;6.93;4.45;;;;;;;17.18;70.32;100008.66;4989846;28;106006;-66
2021/08/20 00:47:59;;;;;;;7.00;4.25;;;;;;;17.17;70.47;100007.03;4989080;28;106336;-67
2021/08/20 00:50:25;;;;;;;7.03;4.35;;;;;;;17.16;70.60;100000.81;4987814;28;108564;-67
2021/08/20 00:52:50;;;;;;;6.93;4.65;;;;;;;17.16;70.52;100003.50;4987603;28;106087;-67
2021/08/20 00:55:16;;;;;;;5.60;4.38;;;;;;;17.14;70.41;99997.53;4988622;28;106048;-66
2021/08/20 00:57:47;;;;;;;7.00;4.45;;;;;;;17.16;70.80;100003.50;4987942;28;106187;-67
2021/08/20 01:00:14;;;;;;;7.13;4.78;;;;;;;17.15;70.71;100004.53;4985723;28;105955;-67
2021/08/20 01:02:39;;;;;;;7.20;4.63;;;;;;;17.14;70.63;100008.31;4987266;28;106428;-67
2021/08/20 01:05:06;;;;;;;6.07;4.15;;;;;;;17.14;70.93;100005.63;4988144;28;105969;-67
2021/08/20 01:07:36;;;;;;;7.53;4.35;;;;;;;17.14;70.68;100000.22;4988027;28;106846;-67
2021/08/20 01:10:02;;;;;;;5.53;4.25;;;;;;;17.16;70.91;100014.28;4987428;28;105948;-67
2021/08/20 01:12:28;;;;;;;6.85;4.75;;;;;;;17.16;70.82;100011.59;4987922;28;105882;-67
2021/08/20 01:14:53;;;;;;;5.70;4.13;;;;;;;17.17;71.04;100010.56;4988929;28;106101;-67
2021/08/20 01:17:18;;;;;;;6.68;4.30;;;;;;;17.17;71.01;100007.84;4988063;28;106275;-67
2021/08/20 01:19:44;;;;;;;6.70;4.00;;;;;;;17.19;70.99;100013.84;4988212;28;106719;-66
2021/08/20 01:22:09;;;;;;;5.20;3.88;;;;;;;17.24;71.16;100016.69;4987704;28;106244;-67
2021/08/20 01:24:35;;;;;;;7.70;5.00;;;;;;;17.27;70.58;100022.72;4988526;28;105859;-67
2021/08/20 01:27:00;;;;;;;8.88;4.50;;;;;;;17.23;70.92;100020.44;4987649;28;105854;-67
2021/08/20 01:29:26;;;;;;;7.35;4.30;;;;;;;17.22;70.78;100018.81;4987711;28;105807;-67
2021/08/20 01:31:52;;;;;;;5.97;4.22;;;;;;;17.20;71.08;100017.38;4987839;28;106492;-67
2021/08/20 01:34:18;;;;;;;6.45;4.43;;;;;;;17.15;70.78;100018.00;4988659;28;105868;-67
2021/08/20 01:36:44;;;;;;;9.50;4.53;;;;;;;17.16;71.22;100016.16;4990799;28;106212;-67
2021/08/20 01:39:09;;;;;;;7.55;4.82;;;;;;;17.16;71.24;100016.16;4991068;28;106648;-67
2021/08/20 01:41:35;;;;;;;6.85;4.50;;;;;;;17.16;71.28;100025.03;4991053;28;107155;-67
2021/08/20 01:44:01;;;;;;;9.85;4.00;;;;;;;17.16;71.22;100016.16;4992164;28;105936;-67
2021/08/20 01:46:28;;;;;;;7.05;4.22;;;;;;;17.14;71.16;100019.06;4991296;28;106197;-67
2021/08/20 01:48:55;;;;;;;7.78;4.40;;;;;;;17.13;71.27;100022.78;4989972;28;106292;-68
2021/08/20 01:51:23;;;;;;;5.63;3.90;;;;;;;17.14;71.38;100021.75;4990665;28;106028;-68
2021/08/20 01:53:49;;;;;;;6.25;4.78;;;;;;;17.17;71.55;100023.19;4991396;28;106012;-67
2021/08/20 01:56:23;;;;;;;10.60;4.50;;;;;;;17.17;71.51;100024.00;4990892;28;106295;-67
2021/08/20 01:58:49;;;;;;;6.38;4.45;;;;;;;17.17;71.69;100024.00;4990425;28;106060;-66
2021/08/20 02:01:15;;;;;;;8.80;4.32;;;;;;;17.17;71.53;100024.00;4990722;28;106448;-67
2021/08/20 02:03:41;;;;;;;5.43;4.38;;;;;;;17.14;71.44;100019.06;4991405;28;105982;-67
2021/08/20 02:06:07;;;;;;;5.82;4.22;;;;;;;17.13;71.33;100013.88;4991066;28;106217;-67
2021/08/20 02:08:32;;;;;;;7.53;4.63;;;;;;;17.10;71.38;100012.47;4990679;28;106678;-67
2021/08/20 02:10:57;;;;;;;7.10;4.25;;;;;;;17.09;71.26;100008.94;4990965;28;106048;-66
2021/08/20 02:13:23;;;;;;;5.03;4.28;;;;;;;17.08;71.67;100014.53;4991405;28;106495;-67
2021/08/20 02:15:49;;;;;;;7.00;4.28;;;;;;;17.08;71.67;100009.16;4990493;28;106365;-67
2021/08/20 02:18:15;;;;;;;7.07;4.75;;;;;;;17.08;71.64;100011.84;4990642;28;106024;-68
2021/08/20 02:20:41;;;;;;;5.75;4.50;;;;;;;17.08;71.75;100011.84;4990085;28;105925;-68
2021/08/20 02:23:08;;;;;;;6.78;5.00;;;;;;;17.08;71.73;100009.97;4991304;28;105831;-68
2021/08/20 02:25:33;;;;;;;7.18;4.75;;;;;;;17.08;71.62;100004.59;4990326;28;106152;-68
2021/08/20 02:27:59;;;;;;;7.53;4.43;;;;;;;17.09;71.71;100003.56;4990366;28;105808;-67
2021/08/20 02:30:24;;;;;;;7.45;4.97;;;;;;;17.09;71.91;100011.63;4989867;28;106016;-67
2021/08/20 02:32:50;;;;;;;11.05;4.63;;;;;;;17.12;71.85;100009.56;4991094;28;106005;-66
2021/08/20 02:35:15;;;;;;;7.57;4.68;;;;;;;17.13;71.99;100003.09;4990180;28;105959;-66
2021/08/20 02:37:41;;;;;;;6.78;4.18;;;;;;;17.15;71.97;100004.53;4990203;28;106796;-67
2021/08/20 02:40:07;;;;;;;6.30;4.45;;;;;;;17.15;72.01;100009.94;4990070;28;105870;-68
2021/08/20 02:42:32;;;;;;;7.40;4.20;;;;;;;17.15;71.80;100004.53;4990878;28;106381;-68
2021/08/20 02:44:58;;;;;;;8.20;4.22;;;;;;;17.14;71.86;99997.53;4990415;28;105943;-68
2021/08/20 02:47:23;;;;;;;5.45;4.50;;;;;;;17.15;71.86;100003.72;4989817;28;106196;-69
2021/08/20 02:49:48;;;;;;;7.15;5.43;;;;;;;17.14;71.92;100010.16;4989671;28;106043;-67
2021/08/20 02:52:14;;;;;;;10.07;8.20;;;;;;;17.13;71.93;99995.03;4990637;28;106148;-67
2021/08/20 02:54:39;;;;;;;10.45;8.43;;;;;;;17.12;72.12;100005.00;4990049;28;106227;-67
2021/08/20 02:57:05;;;;;;;12.23;9.23;;;;;;;17.15;71.96;100001.03;4989917;28;105960;-67
2021/08/20 02:59:30;;;;;;;13.07;9.32;;;;;;;17.15;71.93;100009.13;4990126;28;105944;-68
2021/08/20 03:01:55;;;;;;;10.77;8.60;;;;;;;17.15;71.89;100001.03;4990403;28;105905;-67
2021/08/20 03:04:20;;;;;;;10.48;7.43;;;;;;;17.15;72.07;100004.53;4989964;28;105937;-67
2021/08/20 03:06:46;;;;;;;10.73;6.82;;;;;;;17.15;71.96;100009.94;4989531;28;105826;-67
2021/08/20 03:09:12;;;;;;;13.23;7.63;;;;;;;17.15;71.97;100007.22;4989480;28;106031;-68
2021/08/20 03:11:37;;;;;;;14.65;6.93;;;;;;;17.17;72.14;100007.03;4990210;28;106012;-68
2021/08/20 03:14:03;;;;;;;9.05;7.00;;;;;;;17.17;71.92;100009.72;4989727;28;106805;-68
2021/08/20 03:16:28;;;;;;;9.35;6.80;;;;;;;17.17;72.06;100010.56;4989596;28;105868;-68
2021/08/20 03:18:53;;;;;;;9.82;5.90;;;;;;;17.20;71.96;100014.69;4989382;28;105864;-67
2021/08/20 03:21:19;;;;;;;9.38;6.07;;;;;;;17.22;72.09;100012.56;4990563;28;106011;-68
2021/08/20 03:23:44;;;;;;;13.95;6.45;;;;;;;17.23;71.93;100017.72;4989488;28;106105;-69
2021/08/20 03:26:09;;;;;;;7.68;5.60;;;;;;;17.25;72.21;100009.47;4989038;28;105933;-68
2021/08/20 03:28:35;;;;;;;11.25;5.93;;;;;;;17.25;72.26;100004.91;4988779;28;105943;-68
2021/08/20 03:31:00;;;;;;;10.43;5.47;;;;;;;17.27;72.17;100011.94;4990466;28;106158;-70
2021/08/20 03:33:25;;;;;;;8.98;5.60;;;;;;;17.27;72.02;100010.06;4988015;28;106438;-69
2021/08/20 03:35:51;;;;;;;11.05;5.40;;;;;;;17.29;72.17;100013.38;4988990;28;106079;-70
2021/08/20 03:38:16;;;;;;;13.10;5.68;;;;;;;17.29;72.12;100009.84;4989312;28;105894;-69
2021/08/20 03:40:41;;;;;;;7.45;5.00;;;;;;;17.29;71.94;100010.69;4989558;28;106274;-68
2021/08/20 03:43:07;;;;;;;9.85;4.80;;;;;;;17.30;72.04;100011.50;4989534;28;106151;-68
2021/08/20 03:45:32;;;;;;;12.65;5.35;;;;;;;17.30;72.21;100016.88;4989175;28;106089;-68
2021/08/20 03:47:57;;;;;;;11.88;5.53;;;;;;;17.33;72.13;100024.50;4989192;28;106056;-68
2021/08/20 03:50:23;;;;;;;8.55;5.25;;;;;;;17.33;72.25;100021.81;4989439;28;106125;-67
2021/08/20 03:52:48;;;;;;;16.48;6.32;;;;;;;17.33;71.91;100025.34;4989039;28;105911;-68
2021/08/20 03:55:13;;;;;;;8.57;5.65;;;;;;;17.34;72.18;100035.06;4988815;28;106268;-68
2021/08/20 03:57:39;;;;;;;10.15;5.35;;;;;;;17.35;72.09;100033.19;4988291;28;105950;-68
2021/08/20 04:00:07;;;;;;;5.80;4.80;;;;;;;17.34;72.03;100034.25;4989780;28;105851;-68
2021/08/20 04:02:33;;;;;;;7.72;4.82;;;;;;;17.33;71.98;100035.28;4988838;28;105898;-68
2021/08/20 04:04:59;;;;;;;9.25;5.60;;;;;;;17.33;72.09;100040.66;4988568;28;105833;-68
2021/08/20 04:07:24;;;;;;;8.70;5.32;;;;;;;17.29;71.97;100044.84;4986967;28;106409;-68
2021/08/20 04:09:49;;;;;;;6.88;4.63;;;;;;;17.27;72.20;100038.84;4989033;28;106023;-68
2021/08/20 04:12:15;;;;;;;9.10;5.00;;;;;;;17.25;72.09;100039.09;4987951;28;106841;-68
2021/08/20 04:14:41;;;;;;;6.90;4.82;;;;;;;17.24;72.20;100040.13;4988052;28;105910;-68
2021/08/20 04:17:06;;;;;;;8.20;5.18;;;;;;;17.22;71.97;100040.34;4987839;28;106333;-68
2021/08/20 04:19:32;;;;;;;13.60;5.72;;;;;;;17.23;72.26;100043.84;4989061;28;105924;-65
2021/08/20 04:21:57;;;;;;;13.63;5.65;;;;;;;17.23;72.33;100044.66;4988690;28;106304;-67
2021/08/20 04:24:23;;;;;;;9.88;4.88;;;;;;;17.26;72.48;100046.09;4988292;28;105997;-66
2021/08/20 04:26:48;;;;;;;10.15;4.82;;;;;;;17.25;72.20;100047.97;4986002;28;106100;-66
2021/08/20 04:29:13;;;;;;;8.30;4.90;;;;;;;17.22;72.29;100040.34;4986800;28;106283;-66
2021/08/20 04:31:39;;;;;;;10.50;4.45;;;;;;;17.23;72.46;100047.34;4986124;28;106302;-67
2021/08/20 04:34:04;;;;;;;12.00;5.40;;;;;;;17.24;72.45;100046.31;4986052;28;106563;-66
2021/08/20 04:36:29;;;;;;;8.63;4.72;;;;;;;17.27;72.29;100049.63;4986084;28;106568;-66
2021/08/20 04:38:55;;;;;;;6.30;4.70;;;;;;;17.27;72.20;100046.94;4986619;28;106119;-67
2021/08/20 04:41:20;;;;;;;8.93;5.03;;;;;;;17.27;72.41;100044.25;4986110;28;105934;-66
2021/08/20 04:43:46;;;;;;;11.23;4.90;;;;;;;17.27;72.39;100041.53;4987796;28;105806;-67
2021/08/20 04:46:11;;;;;;;7.30;4.47;;;;;;;17.31;72.53;100045.47;4987939;28;105916;-67
2021/08/20 04:48:36;;;;;;;7.85;4.45;;;;;;;17.33;72.37;100049.59;4987931;28;105993;-67
2021/08/20 04:51:02;;;;;;;7.75;4.28;;;;;;;17.34;72.33;100042.31;4988376;28;105835;-66
2021/08/20 04:53:29;;;;;;;10.95;4.72;;;;;;;17.36;72.40;100046.44;4987952;28;105974;-66
2021/08/20 04:55:55;;;;;;;6.78;4.60;;;;;;;17.41;72.50;100046.63;4987756;28;105780;-66
2021/08/20 04:58:20;;;;;;;14.95;4.90;;;;;;;17.46;72.31;100045.13;4988680;28;105903;-66
2021/08/20 05:00:46;;;;;;;7.57;4.53;;;;;;;17.48;72.33;100049.25;4987806;28;106613;-66
2021/08/20 05:03:13;;;;;;;7.47;4.22;;;;;;;17.53;72.12;100053.97;4986135;28;105961;-67
2021/08/20 05:05:43;;;;;;;10.90;4.43;;;;;;;17.57;72.21;100052.50;4986870;28;105945;-67
2021/08/20 05:08:08;;;;;;;5.25;4.15;;;;;;;17.58;71.97;100054.16;4988368;28;106251;-69
2021/08/20 05:10:33;;;;;;;8.63;4.43;;;;;;;17.59;71.98;100045.84;4989491;28;106243;-68
2021/08/20 05:12:59;;;;;;;7.72;4.20;;;;;;;17.64;72.10;100049.75;4991500;28;106814;-71
2021/08/20 05:15:27;;;;;;;6.43;4.15;;;;;;;17.65;71.97;100048.72;4991452;28;106203;-68
2021/08/20 05:17:53;;;;;;;8.32;4.75;;;;;;;17.67;71.92;100049.31;4991311;28;106424;-67
2021/08/20 05:20:18;;;;;;;5.57;3.67;;;;;;;17.69;71.89;100056.13;4991462;28;105910;-66
2021/08/20 05:22:51;;;;;;;7.50;4.38;;;;;;;17.72;71.80;100054.84;4990716;28;106148;-67
2021/08/20 05:25:17;;;;;;;7.03;3.80;;;;;;;17.76;71.76;100058.75;4990523;28;106258;-67
2021/08/20 05:27:44;;;;;;;6.43;4.70;;;;;;;17.80;71.70;100051.88;4991340;28;106004;-67
2021/08/20 05:30:10;;;;;;;7.35;4.60;;;;;;;17.81;71.50;100058.94;4990778;28;106184;-68
2021/08/20 05:32:36;;;;;;;6.38;4.30;;;;;;;17.84;71.43;100055.78;4990270;28;106742;-68
2021/08/20 05:35:06;;;;;;;7.00;5.00;;;;;;;17.87;71.42;100052.63;4990989;28;105928;-69
2021/08/20 05:37:32;;;;;;;6.53;4.57;;;;;;;17.91;71.50;100061.97;4991346;28;106060;-67
2021/08/20 05:39:57;;;;;;;7.15;4.55;;;;;;;17.97;71.47;100059.44;4991238;28;106060;-66
2021/08/20 05:42:23;;;;;;;7.78;4.18;;;;;;;18.00;71.28;100058.97;4988802;28;106178;-64
2021/08/20 05:44:48;;;;;;;5.95;4.45;;;;;;;17.98;70.99;100064.59;4990620;28;105899;-64
2021/08/20 05:47:14;;;;;;;8.40;4.10;;;;;;;18.01;71.28;100060.63;4991819;28;105889;-65
2021/08/20 05:49:39;;;;;;;9.18;4.10;;;;;;;18.07;71.36;100062.41;4990341;28;106162;-65
2021/08/20 05:52:05;;;;;;;6.05;4.30;;;;;;;18.14;71.27;100055.13;4990806;28;106329;-65
2021/08/20 05:54:30;;;;;;;11.30;4.85;;;;;;;18.23;71.25;100058.31;4990185;28;105914;-65
2021/08/20 05:56:55;;;;;;;6.05;4.05;;;;;;;18.30;71.06;100061.75;4991245;28;105847;-65
2021/08/20 05:59:21;;;;;;;9.63;4.35;;;;;;;18.38;71.13;100053.38;4990624;28;106139;-66
2021/08/20 06:01:46;;;;;;;5.82;4.18;;;;;;;18.47;71.04;100058.50;4990651;28;107156;-67
2021/08/20 06:04:11;;;;;;;5.88;4.63;;;;;;;18.53;70.89;100063.78;4990112;28;106444;-66
2021/08/20 06:06:38;;;;;;;5.53;4.15;;;;;;;18.58;70.51;100057.72;4991139;28;105992;-66
2021/08/20 06:09:04;;;;;;;10.00;4.40;;;;;;;18.62;70.23;100067.03;4990087;28;106207;-67
2021/08/20 06:11:29;;;;;;;6.55;4.13;;;;;;;18.69;70.19;100066.94;4990323;28;106676;-66
2021/08/20 06:13:55;;;;;;;10.55;4.45;;;;;;;18.79;70.29;100061.81;4988359;28;107355;-67
2021/08/20 06:16:20;;;;;;;8.65;4.30;;;;;;;18.93;70.43;100071.41;4990154;28;106534;-66
2021/08/20 06:18:45;;;;;;;12.40;4.70;;;;;;;19.13;70.30;100066.78;4990029;28;106612;-67
2021/08/20 06:21:11;;;;;;;7.82;3.75;;;;;;;19.31;69.84;100071.31;4989240;28;106604;-67
2021/08/20 06:23:37;;;;;;;8.20;4.35;;;;;;;19.38;69.41;100069.31;4989902;28;106231;-66
2021/08/20 06:26:02;;;;;;;8.68;3.60;;;;;;;19.41;68.91;100075.09;4990475;28;106234;-67
2021/08/20 06:28:27;;;;;;;8.07;3.90;;;;;;;19.43;68.69;100074.84;4990289;28;106422;-66
2021/08/20 06:30:53;;;;;;;8.35;3.50;;;;;;;19.47;68.65;100073.34;4989914;28;109247;-66
2021/08/20 06:33:18;;;;;;;8.38;3.50;;;;;;;19.54;68.58;100074.03;4989839;28;106019;-65
2021/08/20 06:35:44;;;;;;;7.88;3.35;;;;;;;19.67;68.49;100074.88;4990848;28;105981;-67
2021/08/20 06:38:09;;;;;;;8.75;3.65;;;;;;;19.79;68.30;100073.84;4990317;28;106175;-65
2021/08/20 06:40:35;;;;;;;8.38;3.30;;;;;;;19.95;68.25;100075.03;4990108;28;106082;-65
2021/08/20 06:43:01;;;;;;;8.20;3.00;;;;;;;20.14;67.77;100077.63;4989852;28;106102;-67
2021/08/20 06:45:26;;;;;;;10.70;3.40;;;;;;;20.29;67.42;100083.38;4990791;28;106024;-67
2021/08/20 06:47:52;;;;;;;7.93;4.00;;;;;;;20.39;67.15;100084.66;4990345;28;106220;-67
2021/08/20 06:50:17;;;;;;;5.45;3.20;;;;;;;20.42;66.22;100082.31;4989087;28;106635;-67
2021/08/20 06:52:42;;;;;;;5.10;3.20;;;;;;;20.50;66.33;100083.81;4989841;28;105927;-66
2021/08/20 06:55:08;;;;;;;10.80;3.58;;;;;;;20.61;66.09;100080.28;4990733;28;105751;-66
2021/08/20 06:57:34;;;;;;;6.40;3.35;;;;;;;20.73;65.68;100084.84;4989700;28;106231;-66
2021/08/20 06:59:59;;;;;;;7.07;3.10;;;;;;;20.85;65.63;100077.50;4989567;28;106274;-66
2021/08/20 07:02:24;;;;;;;5.22;2.83;;;;;;;21.02;65.29;100082.16;4989009;28;105890;-66
2021/08/20 07:04:50;;;;;;;6.50;2.80;;;;;;;21.16;64.61;100074.56;4990220;28;105923;-67
2021/08/20 07:07:15;;;;;;;5.20;3.35;;;;;;;21.21;64.18;100074.66;4989300;28;106158;-66
2021/08/20 07:09:41;;;;;;;6.35;3.58;;;;;;;21.26;63.73;100082.88;4989202;28;106377;-66
2021/08/20 07:12:06;;;;;;;7.30;3.55;;;;;;;21.27;63.73;100079.91;4989242;28;106018;-65
2021/08/20 07:14:32;;;;;;;15.43;3.30;;;;;;;21.29;63.37;100085.91;4989850;28;106041;-65
2021/08/20 07:16:57;;;;;;;10.35;3.03;;;;;;;21.33;63.14;100088.13;4989486;28;106154;-65
2021/08/20 07:19:23;;;;;;;10.70;3.72;;;;;;;21.58;62.85;100083.19;4988922;28;113442;-66
2021/08/20 07:21:48;;;;;;;11.10;3.00;;;;;;;21.82;63.09;100091.16;4989195;28;106168;-65
2021/08/20 07:24:13;;;;;;;9.68;2.45;;;;;;;22.26;62.87;100088.53;4990198;28;106119;-65
2021/08/20 07:26:39;;;;;;;4.90;3.13;;;;;;;22.90;62.62;100089.09;4989180;28;106300;-65
2021/08/20 07:29:04;;;;;;;9.32;4.00;;;;;;;23.75;62.28;100088.53;4989174;28;106263;-66
2021/08/20 07:31:30;;;;;;;6.40;2.80;;;;;;;24.52;60.11;100082.75;4988732;28;105972;-65
2021/08/20 07:33:55;;;;;;;7.55;2.75;;;;;;;25.13;58.07;100093.03;4988877;28;105894;-65
2021/08/20 07:36:21;;;;;;;5.75;3.03;;;;;;;25.66;56.22;100092.84;4988922;28;106235;-65
2021/08/20 07:38:46;;;;;;;6.68;3.28;;;;;;;26.09;54.85;100092.53;4988770;28;105833;-65
2021/08/20 07:41:12;;;;;;;3.80;2.97;;;;;;;26.52;53.39;100098.44;4988573;28;106147;-65
2021/08/20 07:43:37;;;;;;;3.97;2.45;;;;;;;26.85;52.04;100088.72;4989418;28;106006;-64
2021/08/20 07:46:02;;;;;;;5.50;2.63;;;;;;;27.26;50.68;100084.94;4988605;28;106214;-65
2021/08/20 07:48:27;;;;;;;4.18;2.50;;;;;;;27.63;49.64;100085.50;4988029;28;110343;-66
2021/08/20 07:50:53;;;;;;;6.50;2.65;;;;;;;27.99;47.84;100085.16;4987989;28;107287;-66
2021/08/20 07:53:18;;;;;;;4.32;2.08;;;;;;;28.01;46.23;100088.47;4989444;28;105810;-65
2021/08/20 07:55:44;;;;;;;4.45;2.90;;;;;;;27.92;44.76;100084.69;4988814;28;106153;-66
2021/08/20 07:58:10;;;;;;;4.80;2.45;;;;;;;27.95;45.01;100090.38;4988554;28;105822;-68
2021/08/20 08:00:36;;;;;;;3.88;2.50;;;;;;;28.10;44.87;100083.16;4988656;28;106017;-66
2021/08/20 08:03:01;;;;;;;3.60;2.20;;;;;;;28.30;43.70;100091.13;4989532;28;106550;-66
2021/08/20 08:05:27;;;;;;;5.15;2.50;;;;;;;28.18;42.92;100088.00;4988745;28;106139;-66
2021/08/20 08:07:55;;;;;;;6.35;2.47;;;;;;;27.86;42.94;100097.59;4987927;28;106918;-67
2021/08/20 08:10:21;;;;;;;5.38;2.42;;;;;;;27.56;43.18;100095.94;4988380;28;105993;-67
2021/08/20 08:12:47;;;;;;;3.45;2.25;;;;;;;27.27;42.82;100093.94;4989263;28;106111;-65
2021/08/20 08:15:13;;;;;;;7.90;2.65;;;;;;;27.05;43.37;100091.63;4987109;28;106184;-67
2021/08/20 08:17:38;;;;;;;4.72;2.40;;;;;;;26.98;43.37;100098.25;4988253;28;105906;-64
2021/08/20 08:20:06;;;;;;;4.43;2.47;;;;;;;26.86;43.21;100100.50;4988136;28;105932;-65
2021/08/20 08:22:31;;;;;;;3.83;2.30;;;;;;;26.87;43.20;100096.66;4988169;28;105913;-64
2021/08/20 08:24:57;;;;;;;3.58;2.25;;;;;;;26.90;43.02;100093.38;4988732;28;106466;-65
2021/08/20 08:27:22;;;;;;;4.07;2.10;;;;;;;26.99;42.76;100097.13;4988141;28;108593;-65
2021/08/20 08:29:47;;;;;;;5.13;2.20;;;;;;;27.08;42.91;100093.78;4988322;28;106469;-65
2021/08/20 08:32:13;;;;;;;7.85;2.78;;;;;;;27.10;42.45;100097.06;4989077;28;105968;-65
2021/08/20 08:34:38;;;;;;;5.85;2.97;;;;;;;27.17;42.42;100101.13;4975673;28;106114;-65
2021/08/20 08:37:04;;;;;;;6.60;2.42;;;;;;;27.21;42.13;100098.63;4968483;28;106680;-65
2021/08/20 08:39:31;;;;;;;4.45;2.58;;;;;;;27.23;42.30;100101.91;4968144;28;106092;-64
2021/08/20 08:41:56;;;;;;;3.05;2.42;;;;;;;27.34;41.85;100100.72;4969287;28;105904;-65
2021/08/20 08:44:21;;;;;;;7.40;2.85;;;;;;;27.48;41.75;100098.19;4968240;28;106171;-65
2021/08/20 08:46:47;;;;;;;6.50;2.85;;;;;;;27.52;40.73;100095.72;4967992;28;106302;-65
2021/08/20 08:49:13;;;;;;;5.03;2.60;;;;;;;27.40;40.68;100098.00;4967404;28;105876;-65
2021/08/20 08:51:39;;;;;;;4.82;2.65;;;;;;;27.57;40.73;100090.22;4969008;28;105943;-66
2021/08/20 08:54:04;;;;;;;4.82;2.20;;;;;;;27.96;40.99;100096.69;4968467;28;106276;-65
2021/08/20 08:56:30;;;;;;;3.78;2.88;;;;;;;28.45;40.28;100089.34;4968133;28;106178;-65
2021/08/20 08:58:55;;;;;;;4.35;2.40;;;;;;;28.86;39.51;100097.88;4967975;28;106011;-66
2021/08/20 09:01:30;;;;;;;4.80;2.53;;;;;;;29.24;39.03;100094.31;4968994;28;106057;-66
2021/08/20 09:04:19;;;;;;;4.00;2.30;;;;;;;29.38;37.07;100100.69;4968639;28;106286;-66
2021/08/20 09:06:47;;;;;;;3.38;2.25;;;;;;;29.13;37.84;100101.06;4967737;28;106574;-66
2021/08/20 09:09:17;;;;;;;7.53;2.65;;;;;;;28.74;37.57;100088.47;4966633;28;106452;-66
2021/08/20 09:11:49;;;;;;;6.65;3.00;;;;;;;28.45;38.28;100097.56;4968061;28;105909;-65
2021/08/20 09:14:17;;;;;;;6.32;2.60;;;;;;;28.27;38.55;100096.38;4966786;28;106206;-65
2021/08/20 09:16:44;;;;;;;5.65;3.42;;;;;;;27.89;38.75;100096.22;4967365;28;106578;-65
2021/08/20 09:19:22;;;;;;;9.35;3.42;;;;;;;27.59;39.23;100098.13;4967603;28;106118;-66
2021/08/20 09:21:56;;;;;;;4.88;2.90;;;;;;;27.50;39.75;100111.56;4968231;28;105886;-65
2021/08/20 09:24:38;;;;;;;4.63;2.85;;;;;;;27.23;39.99;100101.91;4968037;28;106042;-65
2021/08/20 09:27:19;;;;;;;4.47;2.92;;;;;;;27.08;40.20;100102.00;4967854;28;106921;-65
2021/08/20 09:30:03;;;;;;;4.45;2.83;;;;;;;26.98;40.32;100100.97;4967544;28;105988;-65
2021/08/20 09:32:28;;;;;;;3.88;2.80;;;;;;;26.89;40.58;100099.09;4968130;28;106202;-67
2021/08/20 09:34:57;;;;;;;6.45;2.78;;;;;;;26.71;40.61;100095.94;4967332;28;105963;-65
2021/08/20 09:37:23;;;;;;;4.32;2.72;;;;;;;26.67;41.00;100095.63;4967101;28;106352;-64
2021/08/20 09:39:49;;;;;;;5.80;2.65;;;;;;;26.67;40.86;100097.56;4967757;28;105940;-64
2021/08/20 09:42:17;;;;;;;3.85;2.50;;;;;;;26.94;40.62;100088.97;4968101;28;105860;-64
2021/08/20 09:44:43;;;;;;;7.78;2.90;;;;;;;27.13;40.55;100093.75;4967840;28;106247;-65
2021/08/20 09:47:09;;;;;;;5.10;2.72;;;;;;;27.28;40.55;100098.31;4967469;28;106559;-65
2021/08/20 09:49:57;;;;;;;4.13;2.80;;;;;;;27.30;39.78;100086.00;4966951;28;106579;-65
2021/08/20 09:52:30;;;;;;;4.65;2.55;;;;;;;27.42;39.98;100090.31;4968675;28;105923;-64
2021/08/20 09:54:56;;;;;;;5.28;2.55;;;;;;;27.83;39.73;100081.75;4967448;28;105831;-65
2021/08/20 09:57:24;;;;;;;4.97;2.47;;;;;;;28.36;39.47;100081.78;4969876;28;105798;-65
2021/08/20 09:59:54;;;;;;;6.15;2.40;;;;;;;28.60;38.12;100077.38;4970454;28;106055;-66
2021/08/20 10:02:20;;;;;;;5.85;2.65;;;;;;;28.60;37.64;100086.41;4971333;28;106030;-65
2021/08/20 10:04:46;;;;;;;4.07;2.65;;;;;;;28.54;37.56;100079.34;4970439;28;106184;-65
2021/08/20 10:07:14;;;;;;;4.95;2.08;;;;;;;28.68;37.71;100085.78;4970411;28;105740;-65
2021/08/20 10:09:40;;;;;;;9.45;3.35;;;;;;;28.76;37.03;100080.75;4969312;28;106077;-65
2021/08/20 10:12:06;;;;;;;4.65;2.53;;;;;;;28.66;37.07;100081.69;4969557;28;106616;-65
2021/08/20 10:14:32;;;;;;;7.13;2.80;;;;;;;28.69;37.60;100087.41;4970599;28;106117;-66
2021/08/20 10:16:57;;;;;;;4.82;3.00;;;;;;;28.78;37.41;100078.53;4969818;28;106917;-65
2021/08/20 10:19:22;;;;;;;7.32;2.40;;;;;;;29.00;37.90;100078.75;4969953;28;106018;-65
2021/08/20 10:21:48;;;;;;;5.93;3.03;;;;;;;29.35;37.18;100082.09;4970729;28;106050;-65
2021/08/20 10:24:14;;;;;;;7.25;2.70;;;;;;;29.49;36.67;100075.84;4970165;28;106331;-65
2021/08/20 10:26:44;;;;;;;3.72;2.70;;;;;;;29.47;36.07;100067.91;4969900;28;106585;-67
2021/08/20 10:29:10;;;;;;;5.47;3.10;;;;;;;29.17;36.25;100077.41;4969841;28;106112;-65
2021/08/20 10:31:37;;;;;;;5.47;2.67;;;;;;;28.74;36.48;100078.28;4970591;28;106043;-67
2021/08/20 10:34:31;;;;;;;4.70;3.42;;;;;;;28.01;36.77;100072.84;4970355;28;106342;-68
2021/08/20 10:37:13;;;;;;;7.25;2.88;;;;;;;27.51;37.58;100077.66;4970256;28;106279;-68
2021/08/20 10:39:44;;;;;;;5.68;2.75;;;;;;;27.12;38.59;100073.81;4973569;28;106195;-65
2021/08/20 10:42:10;;;;;;;6.65;2.60;;;;;;;27.01;39.09;100070.34;4969523;28;106012;-66
2021/08/20 10:44:45;;;;;;;4.40;2.67;;;;;;;26.93;39.34;100070.94;4969319;28;106293;-65
2021/08/20 10:47:27;;;;;;;4.68;3.17;;;;;;;26.68;40.01;100069.94;4968248;28;106357;-65
2021/08/20 10:50:18;;;;;;;5.00;2.88;;;;;;;26.67;40.12;100072.97;4967713;28;106085;-66
2021/08/20 10:52:46;;;;;;;4.18;3.13;;;;;;;26.65;40.24;100066.94;4969036;28;106619;-65
2021/08/20 10:55:21;;;;;;;4.57;2.78;;;;;;;26.62;40.14;100065.59;4967103;28;106218;-66
2021/08/20 10:57:55;;;;;;;5.15;2.70;;;;;;;26.80;39.96;100071.56;4968551;28;106007;-65
2021/08/20 11:00:20;;;;;;;6.78;3.17;;;;;;;26.67;39.99;100079.22;4968448;28;106033;-65
2021/08/20 11:03:06;;;;;;;4.65;3.15;;;;;;;26.30;40.55;100069.56;4968819;28;106391;-65
2021/08/20 11:05:48;;;;;;;5.57;3.03;;;;;;;26.33;41.03;100077.19;4968387;28;106037;-66
2021/08/20 11:08:28;;;;;;;6.38;2.80;;;;;;;26.26;40.63;100076.66;4967852;28;106067;-66
2021/08/20 11:10:58;;;;;;;5.10;2.90;;;;;;;25.90;41.10;100073.97;4968045;28;106255;-64
2021/08/20 11:13:23;;;;;;;5.55;3.10;;;;;;;25.67;42.19;100072.63;4968543;28;106660;-66
2021/08/20 11:15:49;;;;;;;4.82;3.28;;;;;;;25.56;42.52;100074.59;4967443;28;106284;-66